Time;durP1;ratioP1;P1;durP2;ratioP2;P2;SDS_P1;SDS_P2;PMS_P1;PMS_P2;Temp;Humidity;BMP_temperature;BMP_pressure;BME280_temperature;BME280_humidity;BME280_pressure;Samples;Min_cycle;Max_cycle;Signal;HPM_P1;HPM_P2
2024/01/05 00:01:25;;;;;;;2.73;2.20;;;16.60;71.40;17.50;99316.00;;;;5068451;28;20234;-43
2024/01/05 00:03:51;;;;;;;2.50;2.30;;;16.60;72.30;17.50;99305.00;;;;5035009;28;20220;-43
2024/01/05 00:06:17;;;;;;;3.53;2.17;;;16.60;71.50;17.50;99282.00;;;;5065969;28;20776;-44
2024/01/05 00:08:42;;;;;;;3.67;2.37;;;16.60;71.50;17.50;99281.00;;;;5064383;28;20178;-44
2024/01/05 00:11:08;;;;;;;3.03;2.10;;;16.60;71.50;17.50;99280.00;;;;5070212;28;20185;-43
2024/01/05 00:13:34;;;;;;;3.20;2.20;;;16.60;71.50;17.40;99282.00;;;;5068858;28;20190;-43
2024/01/05 00:16:00;;;;;;;2.63;2.20;;;16.60;72.40;17.40;99280.00;;;;5068558;28;20192;-43
2024/01/05 00:18:25;;;;;;;2.60;2.10;;;16.60;71.70;17.40;99276.00;;;;5064260;28;20185;-43
2024/01/05 00:20:51;;;;;;;2.53;2.10;;;16.50;71.50;17.40;99284.00;;;;5068311;28;20174;-44
2024/01/05 00:23:17;;;;;;;2.70;2.03;;;16.50;71.60;17.40;99275.00;;;;5068239;28;20280;-44
2024/01/05 00:25:43;;;;;;;2.97;2.20;;;16.60;71.80;17.40;99262.00;;;;5068841;28;20166;-43
2024/01/05 00:28:09;;;;;;;3.23;2.10;;;16.50;71.60;17.40;99251.00;;;;5072519;28;20177;-44
2024/01/05 00:30:35;;;;;;;2.93;2.20;;;16.50;71.70;17.40;99259.00;;;;5071689;28;20177;-43
2024/01/05 00:33:01;;;;;;;2.60;2.13;;;16.50;71.70;17.30;99255.00;;;;5036582;28;20214;-44
2024/01/05 00:35:26;;;;;;;2.67;2.20;;;16.50;71.80;17.30;99239.00;;;;5070841;28;20211;-44
2024/01/05 00:37:52;;;;;;;2.93;2.30;;;16.50;71.90;17.30;99250.00;;;;5050325;28;20176;-44
2024/01/05 00:40:18;;;;;;;2.60;2.20;;;16.50;71.90;17.30;99252.00;;;;5047857;28;20247;-44
2024/01/05 00:42:44;;;;;;;3.57;2.23;;;16.50;72.00;17.30;99245.00;;;;5071834;28;20212;-44
2024/01/05 00:45:09;;;;;;;2.20;2.00;;;16.50;71.90;17.30;99220.00;;;;5071751;28;20197;-44
2024/01/05 00:47:35;;;;;;;3.37;2.30;;;16.40;71.90;17.30;99242.00;;;;5071842;28;20268;-43
2024/01/05 00:50:01;;;;;;;3.17;2.00;;;16.50;72.10;17.30;99232.00;;;;5071777;28;20181;-44
2024/01/05 00:52:27;;;;;;;2.17;1.97;;;16.40;72.10;17.30;99227.00;;;;5071869;28;20228;-43
2024/01/05 00:54:53;;;;;;;2.80;2.10;;;16.40;72.20;17.30;99216.00;;;;5072117;28;20177;-45
2024/01/05 00:57:18;;;;;;;2.63;2.20;;;16.40;72.30;17.30;99229.00;;;;5071894;28;20662;-43
2024/01/05 00:59:44;;;;;;;2.43;2.23;;;16.40;72.30;17.20;99229.00;;;;5071555;28;20173;-44
2024/01/05 01:02:10;;;;;;;3.37;2.30;;;16.40;73.20;17.30;99213.00;;;;5071570;28;20256;-43
2024/01/05 01:04:35;;;;;;;2.67;2.10;;;16.40;72.50;17.20;99219.00;;;;5071210;28;20228;-43
2024/01/05 01:07:01;;;;;;;2.33;2.13;;;16.40;72.40;17.20;99218.00;;;;5071344;28;20185;-43
2024/01/05 01:09:27;;;;;;;2.37;2.17;;;16.40;72.30;17.20;99217.00;;;;5070805;28;20177;-44
2024/01/05 01:11:53;;;;;;;2.60;2.10;;;16.40;72.40;17.20;99219.00;;;;5070981;28;20188;-44
2024/01/05 01:14:18;;;;;;;3.40;2.20;;;16.40;72.40;17.20;99216.00;;;;5070367;28;20816;-44
2024/01/05 01:16:44;;;;;;;2.40;1.93;;;16.40;72.40;17.20;99210.00;;;;5070646;28;20250;-43
2024/01/05 01:19:10;;;;;;;2.40;2.10;;;16.40;72.40;17.20;99215.00;;;;5070738;28;20191;-43
2024/01/05 01:21:36;;;;;;;2.20;1.90;;;16.30;72.30;17.20;99203.00;;;;5066109;28;20188;-44
2024/01/05 01:24:01;;;;;;;2.40;2.10;;;16.30;72.40;17.10;99212.00;;;;5070414;28;20189;-44
2024/01/05 01:26:27;;;;;;;2.33;2.10;;;16.30;72.40;17.20;99201.00;;;;5070270;28;20171;-44
2024/01/05 01:28:53;;;;;;;2.43;2.07;;;16.30;72.40;17.10;99191.00;;;;5048187;28;20234;-44
2024/01/05 01:31:19;;;;;;;2.27;2.00;;;16.30;72.40;17.10;99193.00;;;;5070084;28;20177;-43
2024/01/05 01:33:44;;;;;;;2.37;1.97;;;16.30;72.40;17.10;99198.00;;;;5070241;28;20194;-52
2024/01/05 01:36:10;;;;;;;2.63;2.20;;;16.30;72.40;17.10;99195.00;;;;5070527;28;20188;-44
2024/01/05 01:38:36;;;;;;;2.83;2.00;;;16.30;72.40;17.10;99187.00;;;;5069305;28;20172;-43
2024/01/05 01:41:02;;;;;;;2.70;2.10;;;16.30;72.40;17.00;99183.00;;;;5070032;28;20191;-43
2024/01/05 01:43:27;;;;;;;2.47;2.00;;;16.30;72.50;17.10;99184.00;;;;5069745;28;20216;-45
2024/01/05 01:45:59;;;;;;;2.27;1.80;;;16.20;72.40;17.10;99176.00;;;;5070099;28;20275;-44
2024/01/05 01:48:25;;;;;;;2.93;2.07;;;16.20;72.50;17.10;99181.00;;;;5044114;28;20186;-44
2024/01/05 01:50:50;;;;;;;2.77;2.07;;;16.20;72.40;17.00;99182.00;;;;5035955;28;20182;-43
2024/01/05 01:53:18;;;;;;;2.77;1.90;;;16.20;72.40;16.60;99170.00;;;;5053096;28;20214;-43
2024/01/05 01:55:46;;;;;;;2.03;1.83;;;16.20;72.40;17.00;99171.00;;;;5069627;28;20181;-45
2024/01/05 01:58:12;;;;;;;2.67;2.00;;;16.20;72.40;17.00;99166.00;;;;5069770;28;20180;-43
2024/01/05 02:00:37;;;;;;;2.67;2.00;;;16.20;72.40;17.00;99169.00;;;;5046008;28;20180;-44
2024/01/05 02:03:04;;;;;;;2.30;2.10;;;16.20;72.50;17.00;99182.00;;;;5069052;28;20288;-44
2024/01/05 02:05:29;;;;;;;2.23;1.90;;;16.20;72.40;17.00;99167.00;;;;5068597;28;20176;-44
2024/01/05 02:07:56;;;;;;;2.53;2.10;;;16.20;72.40;17.00;99176.00;;;;5069849;28;20180;-44
2024/01/05 02:10:23;;;;;;;2.20;2.00;;;16.20;72.20;17.00;99180.00;;;;5069165;28;20255;-43
2024/01/05 02:12:49;;;;;;;2.00;1.80;;;16.20;71.90;17.10;99173.00;;;;5069522;28;20276;-44
2024/01/05 02:15:14;;;;;;;2.50;1.90;;;16.20;71.80;17.10;99166.00;;;;5040672;28;20198;-43
2024/01/05 02:17:40;;;;;;;2.43;2.07;;;16.20;71.70;17.10;99164.00;;;;5075561;28;20199;-44
2024/01/05 02:20:07;;;;;;;2.63;1.83;;;16.30;71.60;17.10;99167.00;;;;5069133;28;20182;-44
2024/01/05 02:22:33;;;;;;;2.20;2.00;;;16.30;71.50;17.10;99150.00;;;;5068799;28;20197;-44
2024/01/05 02:24:59;;;;;;;2.10;1.90;;;16.30;71.60;17.20;99167.00;;;;5047541;28;20184;-43
2024/01/05 02:27:25;;;;;;;2.30;1.90;;;16.30;71.50;17.20;99145.00;;;;5070553;28;20245;-43
2024/01/05 02:29:51;;;;;;;2.57;2.10;;;16.20;71.40;17.20;99148.00;;;;5062762;28;20175;-44
2024/01/05 02:32:16;;;;;;;2.17;1.97;;;16.20;71.40;17.20;99147.00;;;;5047244;28;20265;-45
2024/01/05 02:34:42;;;;;;;2.40;1.70;;;16.30;71.50;17.20;99129.00;;;;5069140;28;20172;-43
2024/01/05 02:37:09;;;;;;;2.20;2.00;;;16.20;71.30;17.20;99130.00;;;;5069188;28;20220;-44
2024/01/05 02:39:34;;;;;;;2.40;2.10;;;16.20;71.40;17.20;99139.00;;;;5062203;28;20184;-44
2024/01/05 02:42:00;;;;;;;2.30;1.90;;;16.20;71.40;17.20;99124.00;;;;5034454;28;20197;-43
2024/01/05 02:44:26;;;;;;;2.03;1.80;;;16.20;71.50;17.20;99118.00;;;;5069106;28;20179;-44
2024/01/05 02:46:51;;;;;;;3.23;2.20;;;16.10;71.70;17.20;99111.00;;;;5068917;28;20181;-43
2024/01/05 02:49:17;;;;;;;2.77;2.10;;;16.10;71.90;17.20;99119.00;;;;5067881;28;20660;-43
2024/01/05 02:51:43;;;;;;;2.00;1.80;;;16.10;71.80;17.20;99110.00;;;;5069212;28;20174;-44
2024/01/05 02:54:09;;;;;;;2.10;1.90;;;16.10;71.70;17.20;99110.00;;;;5069718;28;20267;-43
2024/01/05 02:56:35;;;;;;;1.90;1.80;;;16.10;71.80;17.20;99103.00;;;;5045431;28;20177;-43
2024/01/05 02:59:03;;;;;;;2.10;1.90;;;16.10;71.70;17.20;99101.00;;;;5069576;28;20266;-44
2024/01/05 03:01:29;;;;;;;2.10;1.90;;;16.10;71.50;17.10;99098.00;;;;5068763;28;20178;-43
2024/01/05 03:03:55;;;;;;;2.17;1.80;;;16.20;71.50;17.10;99098.00;;;;5069017;28;20318;-43
2024/01/05 03:06:20;;;;;;;2.47;1.90;;;16.20;71.40;17.10;99091.00;;;;5068700;28;20180;-44
2024/01/05 03:08:46;;;;;;;2.30;1.97;;;16.20;71.40;17.10;99094.00;;;;5068456;28;20187;-44
2024/01/05 03:11:12;;;;;;;1.90;1.80;;;16.10;71.30;17.10;99096.00;;;;5067765;28;20180;-43
2024/01/05 03:13:38;;;;;;;2.00;1.77;;;16.20;72.10;17.10;99092.00;;;;5068231;28;20634;-43
2024/01/05 03:16:04;;;;;;;2.87;1.67;;;16.20;71.40;17.10;99096.00;;;;5063296;28;20181;-44
2024/01/05 03:18:30;;;;;;;2.10;1.80;;;16.20;72.10;17.10;99095.00;;;;5067381;28;20208;-43
2024/01/05 03:20:56;;;;;;;2.30;1.90;;;16.10;71.30;17.10;99085.00;;;;5041532;28;20212;-43
2024/01/05 03:23:22;;;;;;;2.43;2.17;;;16.10;71.30;17.10;99076.00;;;;5035086;28;20688;-45
2024/01/05 03:25:48;;;;;;;2.23;1.90;;;16.10;71.30;17.10;99071.00;;;;5068512;28;20173;-44
2024/01/05 03:28:14;;;;;;;2.20;1.90;;;16.10;71.30;17.10;99074.00;;;;5068186;28;20221;-44
2024/01/05 03:30:41;;;;;;;2.43;1.93;;;16.10;71.20;17.10;99070.00;;;;5067844;28;20187;-43
2024/01/05 03:33:06;;;;;;;2.30;1.70;;;16.10;71.20;17.10;99076.00;;;;5044794;28;20297;-43
2024/01/05 03:35:32;;;;;;;2.07;1.70;;;16.10;71.20;17.10;99065.00;;;;5076272;28;20635;-43
2024/01/05 03:37:58;;;;;;;1.90;1.70;;;16.10;71.10;17.10;99063.00;;;;5068043;28;20266;-44
2024/01/05 03:40:24;;;;;;;2.10;1.90;;;16.00;71.00;17.00;99066.00;;;;5068048;28;20245;-44
2024/01/05 03:42:49;;;;;;;2.10;1.90;;;16.10;71.10;17.00;99068.00;;;;5067789;28;20211;-43
2024/01/05 03:45:15;;;;;;;2.33;1.70;;;16.10;71.00;17.00;99058.00;;;;5043514;28;20248;-44
2024/01/05 03:47:41;;;;;;;1.70;1.60;;;16.10;71.00;17.00;99049.00;;;;5068046;28;20783;-44
2024/01/05 03:50:07;;;;;;;2.00;1.80;;;16.10;71.00;17.00;99061.00;;;;5067791;28;20176;-43
2024/01/05 03:52:33;;;;;;;2.47;1.90;;;16.00;70.90;17.00;99057.00;;;;5067821;28;20212;-44
2024/01/05 03:54:58;;;;;;;2.10;1.90;;;16.10;70.90;17.00;99056.00;;;;5068009;28;20240;-44
2024/01/05 03:57:24;;;;;;;1.93;1.77;;;16.00;70.90;17.00;99044.00;;;;5067844;28;20183;-44
2024/01/05 03:59:50;;;;;;;2.97;2.10;;;16.00;70.90;17.00;99043.00;;;;5067435;28;20181;-43
2024/01/05 04:02:16;;;;;;;2.67;1.90;;;16.00;71.60;17.00;99044.00;;;;5071151;28;20239;-43
2024/01/05 04:04:42;;;;;;;1.97;1.80;;;16.00;70.70;17.00;99038.00;;;;5072743;28;20272;-43
2024/01/05 04:07:08;;;;;;;2.40;1.87;;;16.00;70.90;17.00;99048.00;;;;5025987;28;20318;-43
2024/01/05 04:09:33;;;;;;;2.00;1.80;;;16.00;70.80;17.00;99031.00;;;;5074587;28;20610;-43
2024/01/05 04:11:59;;;;;;;1.80;1.70;;;16.00;70.70;17.00;99035.00;;;;5072696;28;20202;-44
2024/01/05 04:14:25;;;;;;;2.33;1.80;;;16.00;70.70;17.00;99030.00;;;;5072497;28;20195;-43
2024/01/05 04:16:51;;;;;;;2.00;1.80;;;16.00;70.80;16.90;99047.00;;;;5072491;28;20191;-42
2024/01/05 04:19:16;;;;;;;2.37;1.80;;;15.90;70.70;16.90;99035.00;;;;5067633;28;20196;-43
2024/01/05 04:21:42;;;;;;;1.80;1.70;;;16.00;70.80;16.90;99038.00;;;;5072151;28;20800;-44
2024/01/05 04:24:08;;;;;;;1.87;1.77;;;15.90;70.70;16.90;99042.00;;;;5072567;28;20238;-44
2024/01/05 04:26:34;;;;;;;2.10;1.80;;;15.90;70.70;16.90;99051.00;;;;5072316;28;20184;-43
2024/01/05 04:29:00;;;;;;;1.90;1.70;;;15.90;70.70;16.90;99053.00;;;;5072527;28;20210;-44
2024/01/05 04:31:26;;;;;;;1.77;1.67;;;15.90;71.00;16.90;99044.00;;;;5074111;28;20176;-43
2024/01/05 04:33:52;;;;;;;3.47;1.70;;;15.90;71.00;16.90;99033.00;;;;5046419;28;20201;-43
2024/01/05 04:36:18;;;;;;;3.97;1.90;;;15.90;71.00;16.90;99032.00;;;;5069453;28;20195;-43
2024/01/05 04:38:44;;;;;;;1.90;1.70;;;15.90;71.30;16.80;99039.00;;;;5067529;28;20187;-43
2024/01/05 04:41:11;;;;;;;2.00;1.67;;;15.90;71.10;16.80;99025.00;;;;5074414;28;20178;-44
2024/01/05 04:43:37;;;;;;;4.30;1.70;;;15.90;70.90;16.90;99039.00;;;;5047429;28;20210;-44
2024/01/05 04:46:05;;;;;;;2.63;1.80;;;15.90;71.00;16.80;99032.00;;;;5072586;28;20617;-44
2024/01/05 04:48:30;;;;;;;2.87;1.90;;;15.90;70.90;16.80;99023.00;;;;5072676;28;20197;-45
2024/01/05 04:50:56;;;;;;;2.03;1.77;;;15.90;70.70;16.80;99015.00;;;;5073082;28;20182;-43
2024/01/05 04:53:22;;;;;;;1.80;1.70;;;15.80;70.50;16.80;99021.00;;;;5036090;28;20276;-43
2024/01/05 04:55:48;;;;;;;3.77;1.80;;;15.80;70.50;16.80;99017.00;;;;5072757;28;20387;-44
2024/01/05 04:58:13;;;;;;;2.43;1.83;;;15.80;70.40;16.80;99019.00;;;;5073359;28;20230;-44
2024/01/05 05:00:39;;;;;;;2.27;1.90;;;15.80;70.40;16.80;99013.00;;;;5071639;28;20267;-43
2024/01/05 05:03:05;;;;;;;2.10;1.90;;;15.80;70.30;16.80;99010.00;;;;5048350;28;20211;-44
2024/01/05 05:05:31;;;;;;;2.70;1.97;;;15.80;70.30;16.80;99016.00;;;;5073035;28;20196;-44
2024/01/05 05:07:57;;;;;;;3.53;1.70;;;15.70;70.10;16.80;99012.00;;;;5071780;28;20184;-44
2024/01/05 05:10:23;;;;;;;2.30;1.83;;;15.70;70.10;16.70;99012.00;;;;5071302;28;20645;-44
2024/01/05 05:12:49;;;;;;;2.77;1.70;;;15.70;70.10;16.70;99000.00;;;;5039317;28;20235;-43
2024/01/05 05:15:14;;;;;;;2.80;1.83;;;15.70;70.10;16.70;99013.00;;;;5071359;28;20673;-44
2024/01/05 05:17:40;;;;;;;2.10;1.90;;;15.70;70.10;16.70;99016.00;;;;5071386;28;20698;-43
2024/01/05 05:20:06;;;;;;;3.57;1.90;;;15.70;70.10;16.70;99006.00;;;;5065550;28;20189;-43
2024/01/05 05:22:33;;;;;;;2.63;2.13;;;15.70;70.10;16.70;99000.00;;;;5070651;28;20216;-42
2024/01/05 05:24:58;;;;;;;3.47;2.00;;;15.70;70.10;16.70;99008.00;;;;5071189;28;20195;-43
2024/01/05 05:27:24;;;;;;;4.20;2.30;;;15.60;69.90;16.70;99002.00;;;;5062745;28;20192;-43
2024/01/05 05:29:50;;;;;;;5.57;1.97;;;15.60;69.90;16.70;99004.00;;;;5042612;28;20188;-43
2024/01/05 05:32:15;;;;;;;3.17;2.13;;;15.60;70.00;16.60;99011.00;;;;5062195;28;20940;-43
2024/01/05 05:34:43;;;;;;;4.20;2.30;;;15.60;69.90;16.60;99006.00;;;;5039542;28;20212;-42
2024/01/05 05:37:09;;;;;;;3.10;1.90;;;15.60;70.00;16.60;98991.00;;;;5071103;28;20186;-43
2024/01/05 05:39:35;;;;;;;2.60;1.90;;;15.60;70.00;16.60;99002.00;;;;5070432;28;20637;-43
2024/01/05 05:42:00;;;;;;;5.23;2.37;;;15.50;69.90;16.60;98988.00;;;;5070409;28;20207;-43
2024/01/05 05:44:26;;;;;;;4.10;2.30;;;15.60;70.00;16.60;98988.00;;;;5070255;28;20257;-43
2024/01/05 05:46:52;;;;;;;7.60;3.37;;;15.60;70.00;16.60;98995.00;;;;5070644;28;20182;-43
2024/01/05 05:49:17;;;;;;;4.97;2.80;;;15.60;70.00;16.60;99009.00;;;;5070070;28;20184;-43
2024/01/05 05:51:44;;;;;;;5.03;2.90;;;15.60;70.00;16.60;98992.00;;;;5061892;28;20583;-43
2024/01/05 05:54:10;;;;;;;5.57;2.50;;;15.60;70.00;16.60;99000.00;;;;5069228;28;20675;-43
2024/01/05 05:56:35;;;;;;;3.47;2.40;;;15.60;70.00;16.60;98990.00;;;;5067143;28;20228;-43
2024/01/05 05:59:01;;;;;;;3.33;2.40;;;15.50;70.00;16.50;98997.00;;;;5064724;28;20237;-43
2024/01/05 06:01:27;;;;;;;8.77;2.47;;;15.50;69.90;16.50;99003.00;;;;5068781;28;20210;-43
2024/01/05 06:03:52;;;;;;;3.60;2.33;;;15.50;69.90;16.50;98993.00;;;;5070288;28;20697;-43
2024/01/05 06:06:20;;;;;;;5.57;2.60;;;15.50;69.90;16.50;99001.00;;;;5065202;28;20177;-44
2024/01/05 06:08:46;;;;;;;4.90;2.30;;;15.50;69.90;16.50;98989.00;;;;5070186;28;20183;-45
2024/01/05 06:11:14;;;;;;;3.90;2.60;;;15.50;69.90;16.50;98978.00;;;;5048571;28;20180;-42
2024/01/05 06:13:40;;;;;;;5.27;2.50;;;15.50;70.00;16.50;98980.00;;;;5045773;28;20199;-43
2024/01/05 06:16:06;;;;;;;3.23;2.20;;;15.40;69.80;16.50;98973.00;;;;5070230;28;20195;-43
2024/01/05 06:18:32;;;;;;;4.67;2.40;;;15.40;69.90;16.50;98968.00;;;;5069805;28;20182;-42
2024/01/05 06:20:59;;;;;;;4.17;2.40;;;15.50;70.00;16.50;98978.00;;;;5069825;28;20189;-43
2024/01/05 06:23:24;;;;;;;3.83;2.20;;;15.40;69.80;16.50;98974.00;;;;5050772;28;20241;-42
2024/01/05 06:25:50;;;;;;;2.93;2.27;;;15.40;70.10;16.50;98970.00;;;;5070048;28;20190;-44
2024/01/05 06:28:16;;;;;;;4.97;2.40;;;15.40;70.00;16.50;98968.00;;;;5069678;28;20188;-44
2024/01/05 06:30:41;;;;;;;5.00;2.47;;;15.40;69.80;16.50;98968.00;;;;5068864;28;20783;-43
2024/01/05 06:33:07;;;;;;;3.20;2.30;;;15.50;69.90;16.50;98964.00;;;;5069639;28;20202;-44
2024/01/05 06:35:33;;;;;;;4.40;2.33;;;15.40;70.00;16.50;98968.00;;;;5049821;28;20185;-44
2024/01/05 06:37:59;;;;;;;4.07;2.20;;;15.40;70.00;16.50;98971.00;;;;5070294;28;20188;-44
2024/01/05 06:40:24;;;;;;;4.43;2.20;;;15.40;69.90;16.50;98973.00;;;;5067999;28;20185;-44
2024/01/05 06:42:50;;;;;;;4.30;2.47;;;15.40;69.80;16.50;98968.00;;;;5069532;28;20692;-44
2024/01/05 06:45:16;;;;;;;2.20;2.00;;;15.40;70.60;16.40;98973.00;;;;5039990;28;20251;-43
2024/01/05 06:47:42;;;;;;;2.77;2.03;;;15.40;69.80;16.40;98980.00;;;;5069507;28;20265;-43
2024/01/05 06:50:08;;;;;;;3.83;2.13;;;15.40;69.80;16.40;98991.00;;;;5070149;28;20179;-44
2024/01/05 06:52:34;;;;;;;3.67;2.27;;;15.40;69.80;16.40;98982.00;;;;5068975;28;20220;-42
2024/01/05 06:55:00;;;;;;;3.53;2.00;;;15.40;69.80;16.40;98970.00;;;;5071462;28;20599;-44
2024/01/05 06:57:28;;;;;;;3.80;2.10;;;15.40;69.80;16.40;98976.00;;;;5050762;28;20261;-44
2024/01/05 06:59:54;;;;;;;2.93;1.97;;;15.40;69.80;16.40;98979.00;;;;5062792;28;20209;-43
2024/01/05 07:02:19;;;;;;;2.73;1.97;;;15.40;69.90;16.40;98971.00;;;;5065306;28;21876;-44
2024/01/05 07:04:45;;;;;;;2.27;2.00;;;15.40;69.80;16.40;98970.00;;;;5062052;28;20527;-44
2024/01/05 07:07:11;;;;;;;3.30;1.97;;;15.40;69.90;16.30;98977.00;;;;5068981;28;20180;-44
2024/01/05 07:09:37;;;;;;;2.40;1.90;;;15.30;69.80;16.30;98980.00;;;;5038169;28;20235;-44
2024/01/05 07:12:03;;;;;;;2.93;1.90;;;15.30;69.80;16.30;98974.00;;;;5065965;28;20261;-44
2024/01/05 07:14:29;;;;;;;2.33;1.90;;;15.30;69.90;16.30;98965.00;;;;5064978;28;20248;-44
2024/01/05 07:16:58;;;;;;;2.80;2.00;;;15.30;69.90;16.30;98968.00;;;;5066732;28;20189;-44
2024/01/05 07:19:24;;;;;;;3.33;2.03;;;15.30;70.00;16.30;98968.00;;;;5060819;28;20228;-44
2024/01/05 07:21:50;;;;;;;3.03;2.20;;;15.30;70.70;16.30;98964.00;;;;5067077;28;20182;-44
2024/01/05 07:24:17;;;;;;;2.40;1.97;;;15.30;70.00;16.30;98964.00;;;;5066293;28;20183;-44
2024/01/05 07:26:43;;;;;;;3.30;2.23;;;15.30;70.00;16.30;98968.00;;;;5060111;28;20655;-44
2024/01/05 07:29:09;;;;;;;3.57;2.00;;;15.30;69.90;16.30;98966.00;;;;5068623;28;20189;-43
2024/01/05 07:31:34;;;;;;;2.97;2.17;;;15.30;70.00;16.30;98973.00;;;;5067591;28;20181;-43
2024/01/05 07:34:01;;;;;;;2.17;1.80;;;15.30;70.00;16.30;98972.00;;;;5068600;28;20204;-44
2024/01/05 07:36:26;;;;;;;2.27;2.00;;;15.30;70.00;16.30;98967.00;;;;5037891;28;20182;-44
2024/01/05 07:38:52;;;;;;;1.80;1.70;;;15.30;70.10;16.20;98978.00;;;;5068677;28;20182;-43
2024/01/05 07:41:18;;;;;;;2.40;1.93;;;15.20;69.90;16.20;98973.00;;;;5067714;28;20175;-43
2024/01/05 07:43:44;;;;;;;2.77;2.03;;;15.20;70.00;16.20;98971.00;;;;5067752;28;20273;-43
2024/01/05 07:46:10;;;;;;;2.30;2.00;;;15.20;70.00;16.20;98973.00;;;;5067692;28;20194;-43
2024/01/05 07:48:42;;;;;;;2.47;2.03;;;15.20;70.00;16.20;98970.00;;;;5067190;28;20265;-43
2024/01/05 07:51:08;;;;;;;3.27;1.93;;;15.20;70.10;16.20;98971.00;;;;5067400;28;20175;-43
2024/01/05 07:53:34;;;;;;;2.87;2.00;;;15.20;70.00;16.20;98980.00;;;;5067930;28;20197;-43
2024/01/05 07:56:02;;;;;;;2.20;1.83;;;15.20;70.00;16.20;98971.00;;;;5067292;28;20669;-42
2024/01/05 07:58:28;;;;;;;2.10;1.90;;;15.20;70.10;16.20;98975.00;;;;5036454;28;20173;-43
2024/01/05 08:00:54;;;;;;;2.77;1.93;;;15.20;70.10;16.20;98983.00;;;;5044236;28;20206;-43
2024/01/05 08:03:21;;;;;;;2.50;1.90;;;15.20;70.10;16.20;98976.00;;;;5067110;28;20293;-43
2024/01/05 08:05:47;;;;;;;2.90;2.07;;;15.20;70.30;16.20;98983.00;;;;5067752;28;20182;-42
2024/01/05 08:08:13;;;;;;;2.20;2.00;;;15.20;70.40;16.20;98980.00;;;;5038203;28;20269;-43
2024/01/05 08:10:39;;;;;;;3.63;2.03;;;15.10;70.30;16.20;98984.00;;;;5064396;28;20180;-42
2024/01/05 08:13:05;;;;;;;3.17;2.20;;;15.20;71.10;16.20;98994.00;;;;5066848;28;20705;-43
2024/01/05 08:15:31;;;;;;;3.07;2.20;;;15.30;71.00;16.20;99002.00;;;;5055602;28;20178;-43
2024/01/05 08:17:57;;;;;;;2.90;1.80;;;15.30;71.00;16.20;98995.00;;;;5068092;28;20173;-43
2024/01/05 08:20:23;;;;;;;2.67;1.90;;;15.40;71.20;16.20;98989.00;;;;5068056;28;20271;-43
2024/01/05 08:22:49;;;;;;;2.60;2.00;;;15.50;71.10;16.30;98986.00;;;;5068373;28;20216;-43
2024/01/05 08:25:15;;;;;;;5.73;2.10;;;15.50;71.00;16.30;98990.00;;;;5061783;28;20682;-43
2024/01/05 08:27:42;;;;;;;2.33;1.90;;;15.60;71.10;16.40;98981.00;;;;5068350;28;20173;-43
2024/01/05 08:30:11;;;;;;;2.37;2.00;;;15.70;70.90;16.40;98990.00;;;;5072663;28;20175;-44
2024/01/05 08:32:37;;;;;;;2.40;2.10;;;15.80;70.80;16.50;98990.00;;;;5038864;28;20191;-42
2024/01/05 08:35:05;;;;;;;2.60;1.60;;;15.90;70.60;16.60;99003.00;;;;5069253;28;20261;-42
2024/01/05 08:37:30;;;;;;;2.83;2.00;;;16.00;70.40;16.70;98994.00;;;;5069019;28;20692;-44
2024/01/05 08:39:56;;;;;;;3.00;2.00;;;16.10;70.50;16.80;99002.00;;;;5069756;28;20212;-44
2024/01/05 08:42:22;;;;;;;2.83;1.70;;;16.30;70.40;16.90;98988.00;;;;5072823;28;20219;-43
2024/01/05 08:44:48;;;;;;;2.60;1.60;;;16.40;70.10;17.00;99003.00;;;;5067877;28;20175;-43
2024/01/05 08:47:13;;;;;;;2.27;1.70;;;16.50;69.90;17.10;98995.00;;;;5068647;28;20197;-42
2024/01/05 08:49:39;;;;;;;2.43;2.00;;;16.60;69.90;17.20;98992.00;;;;5071228;28;20183;-43
2024/01/05 08:52:05;;;;;;;2.00;1.70;;;16.70;69.70;17.30;98992.00;;;;5068363;28;20178;-43
2024/01/05 08:54:31;;;;;;;2.23;1.70;;;16.80;69.70;17.30;98981.00;;;;5070866;28;20208;-43
2024/01/05 08:56:56;;;;;;;2.33;1.97;;;16.90;69.60;17.40;99012.00;;;;5043900;28;20184;-43
2024/01/05 08:59:22;;;;;;;3.60;1.90;;;17.00;69.50;17.50;99007.00;;;;5069241;28;20214;-43
2024/01/05 09:01:48;;;;;;;2.87;1.90;;;17.10;69.40;17.60;99017.00;;;;5071214;28;20212;-43
2024/01/05 09:04:14;;;;;;;2.30;1.90;;;17.20;69.50;17.70;99014.00;;;;5071464;28;20220;-43
2024/01/05 09:06:40;;;;;;;1.80;1.70;;;17.30;69.40;17.80;99024.00;;;;5066205;28;20173;-43
2024/01/05 09:09:06;;;;;;;1.73;1.63;;;17.30;69.20;17.80;99032.00;;;;5071798;28;20177;-43
2024/01/05 09:11:32;;;;;;;3.40;1.80;;;17.40;69.30;17.90;99036.00;;;;5051287;28;20182;-44
2024/01/05 09:13:58;;;;;;;3.30;1.50;;;17.50;69.50;18.00;99037.00;;;;5067664;28;20197;-43
2024/01/05 09:16:23;;;;;;;2.83;1.83;;;17.60;69.50;18.10;99043.00;;;;5063868;28;20178;-43
2024/01/05 09:18:49;;;;;;;4.03;1.73;;;17.70;69.50;18.10;99035.00;;;;5071120;28;20185;-43
2024/01/05 09:21:15;;;;;;;2.63;1.70;;;17.70;69.50;18.20;99033.00;;;;5070302;28;20211;-43
2024/01/05 09:23:41;;;;;;;3.83;1.60;;;17.70;69.50;18.30;99036.00;;;;5049645;28;20202;-43
2024/01/05 09:26:16;;;;;;;2.77;1.60;;;17.80;69.50;18.30;99044.00;;;;5031409;28;20840;-44
2024/01/05 09:28:42;;;;;;;2.33;1.70;;;17.90;69.50;18.40;99052.00;;;;5067120;28;20173;-43
2024/01/05 09:31:11;;;;;;;3.57;1.73;;;18.00;69.50;18.50;99038.00;;;;5068095;28;20757;-43
2024/01/05 09:33:36;;;;;;;1.87;1.60;;;18.10;69.50;18.50;99036.00;;;;5067624;28;20208;-44
2024/01/05 09:36:02;;;;;;;2.27;1.40;;;18.10;69.40;18.60;99051.00;;;;5068826;28;20182;-44
2024/01/05 09:38:29;;;;;;;1.67;1.50;;;18.20;69.30;18.60;99030.00;;;;5069197;28;20181;-44
2024/01/05 09:40:55;;;;;;;2.73;1.60;;;18.20;69.30;18.70;99043.00;;;;5068007;28;20260;-44
2024/01/05 09:43:22;;;;;;;3.03;1.63;;;18.30;69.30;18.80;99044.00;;;;5064806;28;20202;-44
2024/01/05 09:45:52;;;;;;;3.17;1.60;;;18.30;69.40;18.80;99058.00;;;;5069985;28;20721;-44
2024/01/05 09:48:22;;;;;;;3.97;1.63;;;18.40;69.40;18.90;99049.00;;;;5046216;28;20182;-44
2024/01/05 09:50:52;;;;;;;5.53;1.90;;;18.40;69.50;18.90;99052.00;;;;5069655;28;20256;-43
2024/01/05 09:53:19;;;;;;;3.90;1.70;;;18.40;69.40;19.00;99057.00;;;;5064666;28;20197;-44
2024/01/05 09:55:48;;;;;;;4.10;1.60;;;18.50;69.50;19.00;99051.00;;;;5064460;28;20185;-44
2024/01/05 09:58:15;;;;;;;4.57;1.70;;;18.50;69.40;19.00;99053.00;;;;5073500;28;20282;-42
2024/01/05 10:00:48;;;;;;;4.97;1.80;;;18.50;70.00;19.10;99061.00;;;;5067308;28;20166;-44
2024/01/05 10:03:21;;;;;;;3.57;1.60;;;18.50;70.10;19.10;99057.00;;;;5050497;28;20628;-43
2024/01/05 10:05:56;;;;;;;6.17;2.07;;;18.50;70.00;19.10;99061.00;;;;5069866;28;20181;-43
2024/01/05 10:08:22;;;;;;;3.90;1.70;;;18.40;70.10;19.10;99057.00;;;;5064365;28;20189;-44
2024/01/05 10:10:55;;;;;;;2.00;1.47;;;18.40;70.30;19.10;99054.00;;;;5069297;28;20205;-43
2024/01/05 10:13:21;;;;;;;5.83;1.80;;;18.40;70.30;19.10;99059.00;;;;5069803;28;20193;-43
2024/01/05 10:16:00;;;;;;;3.17;1.60;;;18.40;70.30;19.10;99056.00;;;;5069236;28;20657;-44
2024/01/05 10:18:28;;;;;;;6.27;1.73;;;18.40;70.40;19.10;99060.00;;;;5069080;28;20784;-43
2024/01/05 10:20:55;;;;;;;4.10;2.00;;;18.40;70.50;19.10;99067.00;;;;5066665;28;20186;-43
2024/01/05 10:23:21;;;;;;;4.63;1.63;;;18.40;71.00;19.10;99059.00;;;;5037447;28;20682;-44
2024/01/05 10:25:47;;;;;;;3.67;1.80;;;18.40;71.00;19.10;99075.00;;;;5071063;28;20406;-45
2024/01/05 10:28:39;;;;;;;5.23;1.80;;;18.30;71.40;19.10;99065.00;;;;5034257;28;20269;-47
2024/01/05 10:31:14;;;;;;;7.20;1.93;;;18.40;71.20;19.10;99077.00;;;;5062496;28;20776;-43
2024/01/05 10:33:51;;;;;;;3.73;1.70;;;18.50;71.00;19.20;99072.00;;;;5076948;28;20225;-44
2024/01/05 10:36:24;;;;;;;6.73;1.63;;;18.50;70.90;19.20;99076.00;;;;5079392;28;20181;-44
2024/01/05 10:38:50;;;;;;;4.47;1.53;;;18.50;71.10;19.20;99081.00;;;;5069131;28;20193;-44
2024/01/05 10:41:16;;;;;;;2.53;1.47;;;18.60;71.10;19.20;99076.00;;;;5066412;28;20581;-44
2024/01/05 10:43:42;;;;;;;3.63;1.43;;;18.60;71.10;19.30;99080.00;;;;5044668;28;20270;-44
2024/01/05 10:46:12;;;;;;;3.33;1.47;;;18.60;71.00;19.30;99085.00;;;;5048920;28;20576;-44
2024/01/05 10:48:41;;;;;;;4.83;1.90;;;18.60;71.10;19.30;99069.00;;;;5068056;28;20165;-43
2024/01/05 10:51:07;;;;;;;2.83;1.23;;;18.60;71.20;19.30;99073.00;;;;5066042;28;20243;-42